Oak Island, New York
Current Conditions -  °F | °C
As of 5:53 PM on Saturday 25 Oct 2014 (Local Time) from KFRG Reporting Station
Clear Clear  
Wind Chill: 64°   Ceiling: Unl
Heat Index: 64°   Visibility: 10mi
Dew Point: 44°   Wind: 10mph
Humidity: 48%   Direction: 230°SW
Pressure: 29.66"   Gusts: 20mph
Location:  40.6311°N, 73.3431°W
Report Text: KFRG 252153Z 23009G17KT 10SM CLR 18/07 A2966 RMK AO2 SLP042 T01780067
Loading
Personal Weather Stations






























Interactive Weather Map
Tropical Storm Tracking
New forecast layout! Learn more

10-Day Weather Forecast

Advertisements
Track Severe Weather on mobile